Time;durP1;ratioP1;P1;durP2;ratioP2;P2;SDS_P1;SDS_P2;PMS_P1;PMS_P2;Temp;Humidity;BMP_temperature;BMP_pressure;BME280_temperature;BME280_humidity;BME280_pressure;Samples;Min_cycle;Max_cycle;Signal;HPM_P1;HPM_P2
2021/03/25 00:00:23;;;;;;;16.20;10.82;;;;;;;2.67;100.00;96849.22;4991419;28;20149;-59
2021/03/25 00:02:51;;;;;;;16.70;11.00;;;;;;;2.69;100.00;96846.53;5033419;28;20064;-59
2021/03/25 00:05:19;;;;;;;15.82;9.70;;;;;;;2.72;100.00;96842.00;5009490;28;20546;-55
2021/03/25 00:07:47;;;;;;;14.77;8.73;;;;;;;2.80;100.00;96841.53;5026642;28;20076;-55
2021/03/25 00:10:26;;;;;;;15.52;8.95;;;;;;;2.80;100.00;96847.59;4996701;28;20480;-54
2021/03/25 00:12:54;;;;;;;13.27;8.73;;;;;;;2.92;100.00;96837.38;5022057;28;20073;-57
2021/03/25 00:15:22;;;;;;;10.32;8.45;;;;;;;2.92;100.00;96833.00;4988502;28;21855;-58
2021/03/25 00:17:50;;;;;;;12.70;8.85;;;;;;;2.83;100.00;96834.41;5033077;28;20075;-59
2021/03/25 00:20:18;;;;;;;15.93;8.75;;;;;;;2.85;100.00;96831.69;4999738;28;20478;-59
2021/03/25 00:22:45;;;;;;;11.38;8.85;;;;;;;2.60;100.00;96825.28;5037314;28;20491;-56
2021/03/25 00:25:15;;;;;;;11.75;8.40;;;;;;;2.88;100.00;96821.09;4995951;28;20061;-59
2021/03/25 00:27:43;;;;;;;15.60;8.68;;;;;;;2.82;100.00;96819.72;5036895;28;20061;-59
2021/03/25 00:30:13;;;;;;;10.50;8.57;;;;;;;2.82;100.00;96826.66;4994641;28;20061;-57
2021/03/25 00:32:41;;;;;;;13.40;8.67;;;;;;;2.92;100.00;96827.81;5031886;28;20081;-59
2021/03/25 00:35:12;;;;;;;13.25;8.35;;;;;;;2.95;100.00;96830.22;4995658;28;20509;-58
2021/03/25 00:37:40;;;;;;;15.60;9.50;;;;;;;2.97;100.00;96827.56;5024575;28;20783;-59
2021/03/25 00:40:10;;;;;;;13.68;8.40;;;;;;;3.08;100.00;96815.56;5005971;28;20471;-59
2021/03/25 00:42:38;;;;;;;12.13;8.45;;;;;;;3.17;100.00;96808.16;5020436;28;20507;-57
2021/03/25 00:45:09;;;;;;;11.07;8.50;;;;;;;3.16;100.00;96807.28;5008884;28;20108;-59
2021/03/25 00:47:36;;;;;;;12.30;7.88;;;;;;;3.18;100.00;96805.44;5024563;28;20085;-60
2021/03/25 00:50:08;;;;;;;12.65;9.32;;;;;;;3.03;100.00;96802.00;5017120;28;20080;-55
2021/03/25 00:52:35;;;;;;;12.88;8.20;;;;;;;2.97;100.00;96806.72;5032309;28;20068;-60
2021/03/25 00:55:04;;;;;;;11.93;7.75;;;;;;;3.15;100.00;96797.81;5026146;28;20053;-60
2021/03/25 00:57:31;;;;;;;10.02;7.45;;;;;;;2.92;100.00;96803.53;5000712;28;20068;-59
2021/03/25 00:59:59;;;;;;;11.75;8.10;;;;;;;2.87;100.00;96798.59;5020109;28;20061;-60
2021/03/25 01:02:26;;;;;;;12.73;7.95;;;;;;;2.82;100.00;96804.09;5002360;28;20064;-56
2021/03/25 01:04:54;;;;;;;13.48;8.00;;;;;;;2.80;100.00;96805.91;5029217;28;21411;-56
2021/03/25 01:07:25;;;;;;;10.48;7.97;;;;;;;2.56;100.00;96799.50;4977116;28;20092;-55
2021/03/25 01:09:53;;;;;;;11.65;7.95;;;;;;;2.65;100.00;96798.13;5029700;28;20057;-59
2021/03/25 01:12:20;;;;;;;11.95;8.18;;;;;;;2.58;100.00;96798.50;4994204;28;20073;-55
2021/03/25 01:14:48;;;;;;;10.77;8.20;;;;;;;2.59;100.00;96799.34;5038294;28;21691;-56
2021/03/25 01:17:16;;;;;;;10.63;8.48;;;;;;;2.34;100.00;96815.47;4993667;28;20072;-59
2021/03/25 01:19:43;;;;;;;12.32;9.50;;;;;;;2.18;100.00;96812.06;5018807;28;20073;-58
2021/03/25 01:22:11;;;;;;;14.57;9.48;;;;;;;1.90;100.00;96811.81;5002556;28;20060;-57
2021/03/25 01:24:40;;;;;;;17.52;10.85;;;;;;;1.95;100.00;96821.94;5031703;28;20061;-59
2021/03/25 01:27:08;;;;;;;16.73;10.45;;;;;;;2.03;100.00;96818.94;5001514;28;20065;-58
2021/03/25 01:29:36;;;;;;;17.40;10.73;;;;;;;2.16;100.00;96814.75;5023432;28;20100;-60
2021/03/25 01:32:05;;;;;;;16.38;10.77;;;;;;;2.09;100.00;96811.63;4995770;28;20082;-58
2021/03/25 01:34:32;;;;;;;18.30;11.40;;;;;;;2.01;100.00;96816.44;5023650;28;20523;-59
2021/03/25 01:37:00;;;;;;;18.33;10.25;;;;;;;2.00;100.00;96812.16;5012721;28;20069;-58
2021/03/25 01:39:27;;;;;;;18.10;10.50;;;;;;;1.96;100.00;96815.00;5018609;28;20524;-57
2021/03/25 01:41:56;;;;;;;16.88;11.50;;;;;;;2.13;100.00;96807.09;5030559;28;20089;-59
2021/03/25 01:44:38;;;;;;;15.13;10.32;;;;;;;2.11;100.00;96798.56;5003464;28;20574;-59
2021/03/25 01:47:06;;;;;;;18.67;10.70;;;;;;;2.09;100.00;96796.03;5019946;28;20446;-59
2021/03/25 01:49:34;;;;;;;19.80;12.38;;;;;;;2.12;100.00;96795.84;5009186;28;20083;-60
2021/03/25 01:52:36;;;;;;;17.55;10.57;;;;;;;2.18;100.00;96794.69;5029318;28;20061;-57
2021/03/25 01:55:11;;;;;;;16.02;11.18;;;;;;;1.98;100.00;96787.97;5016556;28;20064;-59
2021/03/25 01:58:01;;;;;;;16.23;10.25;;;;;;;2.02;100.00;96789.50;5040703;28;20117;-58
2021/03/25 02:00:33;;;;;;;16.73;10.10;;;;;;;2.03;100.00;96785.13;5021500;28;20077;-59
2021/03/25 02:03:57;;;;;;;22.00;10.93;;;;;;;2.12;100.00;96784.63;5001390;28;20491;-59
2021/03/25 02:06:32;;;;;;;17.65;11.32;;;;;;;2.10;100.00;96794.28;5041432;28;20065;-58
2021/03/25 02:09:09;;;;;;;16.17;11.15;;;;;;;2.11;100.00;96782.94;4988864;28;20526;-58
2021/03/25 02:11:50;;;;;;;17.95;10.63;;;;;;;2.13;100.00;96787.16;5031746;28;20092;-58
2021/03/25 02:14:22;;;;;;;17.70;11.02;;;;;;;2.14;100.00;96785.38;4989374;28;20477;-59
2021/03/25 02:16:58;;;;;;;14.85;10.85;;;;;;;2.11;100.00;96789.00;5022504;28;20555;-60
2021/03/25 02:19:52;;;;;;;13.88;9.35;;;;;;;1.98;100.00;96782.78;4990739;28;20066;-60
2021/03/25 02:22:50;;;;;;;12.02;9.77;;;;;;;1.89;100.00;96783.28;5018460;28;20476;-57
2021/03/25 02:25:21;;;;;;;13.95;9.98;;;;;;;1.89;100.00;96781.53;4924256;28;20132;-60
2021/03/25 02:27:52;;;;;;;;;;;;;;;1.96;100.00;96778.56;5037377;28;20072;-59
2021/03/25 02:30:24;;;;;;;13.90;9.80;;;;;;;1.80;100.00;96773.38;4996441;28;19980;-56
2021/03/25 02:32:54;;;;;;;16.15;9.80;;;;;;;1.68;100.00;96780.06;5026449;28;20466;-57
2021/03/25 02:35:24;;;;;;;12.65;8.60;;;;;;;1.74;100.00;96782.34;5010678;28;20088;-59
2021/03/25 02:37:55;;;;;;;14.63;8.60;;;;;;;1.74;100.00;96782.34;5016734;28;20089;-57
2021/03/25 02:40:29;;;;;;;14.27;9.23;;;;;;;1.72;100.00;96785.94;5004414;28;20511;-54
2021/03/25 02:43:17;;;;;;;12.93;8.02;;;;;;;1.88;100.00;96784.19;5024148;28;20069;-60
2021/03/25 02:45:48;;;;;;;13.95;8.13;;;;;;;1.90;100.00;96780.59;5000000;28;20160;-58
2021/03/25 02:48:19;;;;;;;10.15;7.72;;;;;;;1.96;100.00;96782.03;5032809;28;20233;-60
2021/03/25 02:50:50;;;;;;;10.52;7.85;;;;;;;1.92;100.00;96785.72;5007482;28;20091;-60
2021/03/25 02:53:21;;;;;;;11.07;8.18;;;;;;;1.84;100.00;96778.34;5037579;28;20077;-58
2021/03/25 02:55:50;;;;;;;11.65;7.63;;;;;;;1.87;100.00;96777.34;5000745;28;20073;-60
2021/03/25 02:58:19;;;;;;;13.60;8.80;;;;;;;1.74;100.00;96774.56;5039216;28;20087;-59
2021/03/25 03:00:49;;;;;;;12.32;7.85;;;;;;;1.72;100.00;96767.75;5007905;28;20088;-58
2021/03/25 03:03:38;;;;;;;11.20;8.02;;;;;;;1.74;100.00;96760.72;5033852;28;20069;-59
2021/03/25 03:06:07;;;;;;;13.25;7.55;;;;;;;1.79;100.00;96769.97;5001242;28;20463;-59
2021/03/25 03:08:38;;;;;;;10.30;7.50;;;;;;;1.82;100.00;96761.97;5021523;28;20088;-59
2021/03/25 03:11:11;;;;;;;10.00;7.60;;;;;;;1.86;100.00;96762.66;5006998;28;20092;-59
2021/03/25 03:13:42;;;;;;;10.55;7.47;;;;;;;1.88;100.00;96769.44;5022558;28;20528;-60
2021/03/25 03:16:15;;;;;;;8.35;7.30;;;;;;;1.49;100.00;96772.44;5009930;28;20072;-59
2021/03/25 03:18:45;;;;;;;8.93;7.00;;;;;;;1.76;100.00;96769.28;5030593;28;20103;-59
2021/03/25 03:21:18;;;;;;;10.00;7.38;;;;;;;1.69;100.00;96767.91;4998732;28;23717;-60
2021/03/25 03:23:46;;;;;;;15.57;7.95;;;;;;;1.56;100.00;96771.19;5038731;28;20081;-60
2021/03/25 03:26:16;;;;;;;11.80;7.53;;;;;;;1.37;100.00;96779.09;4996851;28;20092;-59
2021/03/25 03:28:46;;;;;;;9.80;8.25;;;;;;;1.47;100.00;96779.47;5027902;28;20078;-59
2021/03/25 03:31:18;;;;;;;10.50;8.10;;;;;;;1.48;100.00;96775.97;5031731;28;20057;-58
2021/03/25 03:33:49;;;;;;;11.50;7.93;;;;;;;1.44;100.00;96769.22;5018598;28;20061;-58
2021/03/25 03:36:18;;;;;;;10.18;7.25;;;;;;;1.43;100.00;96772.75;5037010;28;20061;-58
2021/03/25 03:38:50;;;;;;;11.80;8.25;;;;;;;1.46;100.00;96767.38;4987261;28;20439;-55
2021/03/25 03:41:20;;;;;;;10.05;8.02;;;;;;;1.44;100.00;96766.63;5028566;28;20065;-57
2021/03/25 03:43:49;;;;;;;10.63;6.90;;;;;;;1.35;100.00;96764.53;4982760;28;20056;-59
2021/03/25 03:46:19;;;;;;;10.98;7.95;;;;;;;1.36;100.00;96768.78;5025336;28;20061;-56
2021/03/25 03:48:49;;;;;;;;;;;;;;;1.36;100.00;96768.78;4990313;28;20507;-58
2021/03/25 03:51:23;;;;;;;12.45;7.93;;;;;;;1.42;100.00;96766.72;5023953;28;19959;-58
2021/03/25 03:53:50;;;;;;;8.73;7.78;;;;;;;1.41;100.00;96761.59;4999960;28;20060;-59
2021/03/25 03:56:27;;;;;;;11.98;7.50;;;;;;;1.31;100.00;96768.22;5022784;28;20483;-58
2021/03/25 03:58:57;;;;;;;11.02;7.28;;;;;;;1.28;100.00;96765.78;4964291;28;20508;-59
2021/03/25 04:01:33;;;;;;;8.07;7.20;;;;;;;1.34;100.00;96763.69;5009518;28;20053;-58
2021/03/25 04:04:05;;;;;;;12.48;7.63;;;;;;;1.34;100.00;96766.28;4983426;28;20056;-59
2021/03/25 04:06:36;;;;;;;9.15;6.70;;;;;;;1.31;100.00;96769.03;5028081;28;20069;-60
2021/03/25 04:09:09;;;;;;;8.88;6.78;;;;;;;1.28;100.00;96768.38;4970693;28;20065;-59
2021/03/25 04:11:40;;;;;;;8.68;6.65;;;;;;;1.24;100.00;96765.09;5031776;28;20077;-59
2021/03/25 04:14:10;;;;;;;10.77;7.40;;;;;;;1.16;100.00;96764.63;5001817;28;20495;-58
2021/03/25 04:16:37;;;;;;;8.65;7.15;;;;;;;1.25;100.00;96771.97;5020481;28;20065;-57
2021/03/25 04:19:09;;;;;;;9.93;7.60;;;;;;;1.25;100.00;96765.94;4991238;28;20069;-59
2021/03/25 04:21:39;;;;;;;10.25;7.03;;;;;;;1.24;100.00;96770.28;5022424;28;20069;-60
2021/03/25 04:24:11;;;;;;;9.38;7.13;;;;;;;1.28;100.00;96771.81;4992720;28;20312;-59
2021/03/25 04:26:42;;;;;;;8.80;6.95;;;;;;;1.25;100.00;96776.31;5022472;28;20053;-59
2021/03/25 04:29:14;;;;;;;9.55;7.50;;;;;;;1.25;100.00;96778.91;4995411;28;20073;-57
2021/03/25 04:31:41;;;;;;;9.60;7.78;;;;;;;1.23;100.00;96772.94;5007317;28;20101;-59
2021/03/25 04:34:10;;;;;;;9.20;6.88;;;;;;;1.22;100.00;96782.50;4997162;28;20080;-59
2021/03/25 04:36:41;;;;;;;9.88;7.53;;;;;;;1.17;100.00;96769.75;5036633;28;20431;-58
2021/03/25 04:39:10;;;;;;;9.90;7.47;;;;;;;1.16;100.00;96769.81;4993382;28;20072;-60
2021/03/25 04:41:40;;;;;;;10.25;7.40;;;;;;;1.15;100.00;96774.19;5039913;28;20491;-59
2021/03/25 04:44:08;;;;;;;;;;;;;;;1.19;100.00;96774.88;5007812;28;20079;-58
2021/03/25 04:46:46;;;;;;;9.18;6.72;;;;;;;1.20;100.00;96776.53;5023052;28;19944;-58
2021/03/25 04:49:30;;;;;;;10.35;6.60;;;;;;;1.19;100.00;96774.88;5024167;28;20060;-59
2021/03/25 04:51:59;;;;;;;9.23;7.38;;;;;;;1.09;100.00;96777.09;5019307;28;20522;-59
2021/03/25 04:54:30;;;;;;;9.02;6.97;;;;;;;0.99;100.00;96783.66;5027844;28;20077;-58
2021/03/25 04:57:00;;;;;;;11.75;7.03;;;;;;;0.85;100.00;96779.19;5015268;28;20033;-59
2021/03/25 04:59:28;;;;;;;9.70;6.90;;;;;;;1.06;100.00;96779.84;5031119;28;20065;-60
2021/03/25 05:01:56;;;;;;;8.38;7.45;;;;;;;1.08;100.00;96774.59;5003512;28;20069;-59
2021/03/25 05:04:24;;;;;;;10.80;7.57;;;;;;;1.19;100.00;96778.31;5022928;28;20064;-61
2021/03/25 05:06:54;;;;;;;9.15;7.00;;;;;;;1.27;100.00;96783.09;4987211;28;20053;-59
2021/03/25 05:09:23;;;;;;;12.88;7.18;;;;;;;1.32;100.00;96781.09;5014259;28;20060;-58
2021/03/25 05:11:52;;;;;;;14.80;7.20;;;;;;;1.34;100.00;96779.28;5004870;28;20065;-59
2021/03/25 05:14:22;;;;;;;14.18;7.03;;;;;;;1.22;100.00;96776.47;5026204;28;20107;-59
2021/03/25 05:17:01;;;;;;;10.82;7.40;;;;;;;1.32;100.00;96778.50;4986854;28;20115;-60
2021/03/25 05:19:38;;;;;;;11.55;7.25;;;;;;;1.18;100.00;96781.81;5021801;28;20436;-59
2021/03/25 05:22:20;;;;;;;12.65;8.30;;;;;;;1.52;100.00;96784.44;4994617;28;20058;-58
2021/03/25 05:24:49;;;;;;;13.00;6.90;;;;;;;1.94;100.00;96783.03;5025032;28;20071;-59
2021/03/25 05:27:26;;;;;;;8.47;7.60;;;;;;;2.36;100.00;96774.59;4996551;28;20070;-60
2021/03/25 05:29:55;;;;;;;10.35;6.45;;;;;;;2.80;100.00;96766.03;5018841;28;20061;-59
2021/03/25 05:32:27;;;;;;;7.47;6.07;;;;;;;2.90;100.00;96767.16;5003162;28;20069;-59
2021/03/25 05:34:58;;;;;;;11.68;6.22;;;;;;;2.66;100.00;96766.81;5019411;28;20977;-59
2021/03/25 05:37:26;;;;;;;6.80;5.53;;;;;;;2.51;100.00;96771.16;5006814;28;20515;-58
2021/03/25 05:39:53;;;;;;;7.40;5.93;;;;;;;2.44;100.00;96769.78;5025822;28;20073;-58
2021/03/25 05:42:26;;;;;;;6.60;5.88;;;;;;;2.57;100.00;96780.34;5004251;28;20214;-60
2021/03/25 05:45:12;;;;;;;9.23;5.85;;;;;;;2.64;100.00;96775.63;5022289;28;20057;-59
2021/03/25 05:48:06;;;;;;;8.75;6.20;;;;;;;2.79;100.00;96775.59;4999942;28;20104;-59
2021/03/25 05:50:44;;;;;;;8.48;6.47;;;;;;;2.75;100.00;96784.53;5029409;28;20081;-59
2021/03/25 05:53:20;;;;;;;8.50;5.68;;;;;;;2.81;100.00;96786.75;5003157;28;20467;-59
2021/03/25 05:56:39;;;;;;;7.45;6.10;;;;;;;2.78;100.00;96792.13;5046489;28;20051;-56
2021/03/25 05:59:10;;;;;;;10.52;6.47;;;;;;;2.98;100.00;96783.16;4998084;28;20089;-58
2021/03/25 06:02:00;;;;;;;7.72;6.28;;;;;;;3.15;100.00;96783.94;5037465;28;20491;-58
2021/03/25 06:04:30;;;;;;;9.27;6.03;;;;;;;3.36;100.00;96779.22;5010871;28;20076;-57
2021/03/25 06:07:32;;;;;;;15.35;6.30;;;;;;;3.61;100.00;96775.94;5027602;28;20061;-57
2021/03/25 06:10:04;;;;;;;8.00;6.13;;;;;;;3.89;100.00;96782.91;5013020;28;20069;-59
2021/03/25 06:12:43;;;;;;;10.98;6.43;;;;;;;4.07;100.00;96780.94;5014249;28;20081;-59
2021/03/25 06:15:35;;;;;;;8.40;6.55;;;;;;;4.27;100.00;96783.97;5027155;28;20075;-59
2021/03/25 06:18:33;;;;;;;6.72;6.03;;;;;;;4.57;100.00;96782.06;5005239;28;20519;-58
2021/03/25 06:21:06;;;;;;;7.38;6.05;;;;;;;4.78;100.00;96785.06;5026880;28;20064;-56
2021/03/25 06:23:52;;;;;;;6.50;5.55;;;;;;;4.87;100.00;96790.50;5001958;28;20085;-59
2021/03/25 06:26:30;;;;;;;6.75;5.13;;;;;;;4.98;100.00;96785.41;5030776;28;20462;-58
2021/03/25 06:29:03;;;;;;;6.85;5.10;;;;;;;5.19;100.00;96790.13;4996200;28;21534;-59
2021/03/25 06:31:48;;;;;;;9.43;5.07;;;;;;;5.13;100.00;96793.19;5035789;28;21836;-59
2021/03/25 06:34:20;;;;;;;7.35;5.32;;;;;;;5.14;100.00;96792.25;5004515;28;20069;-55
2021/03/25 06:36:53;;;;;;;6.50;5.15;;;;;;;5.62;100.00;96798.53;5031535;28;20054;-55
2021/03/25 06:39:28;;;;;;;7.13;4.82;;;;;;;5.96;100.00;96793.59;4985321;28;20460;-56
2021/03/25 06:42:04;;;;;;;6.80;4.35;;;;;;;6.16;100.00;96802.66;5019487;28;20065;-56
2021/03/25 06:44:38;;;;;;;6.95;4.65;;;;;;;6.45;100.00;96803.19;4999323;28;20089;-57
2021/03/25 06:47:13;;;;;;;5.57;4.15;;;;;;;5.97;100.00;96797.88;5037783;28;20498;-58
2021/03/25 06:49:46;;;;;;;4.35;3.95;;;;;;;6.47;100.00;96803.06;5003689;28;20073;-59
2021/03/25 06:52:21;;;;;;;8.27;4.97;;;;;;;6.72;100.00;96807.38;5041538;28;20563;-56
2021/03/25 06:54:49;;;;;;;6.03;4.47;;;;;;;6.82;100.00;96803.13;4996619;28;20073;-55
2021/03/25 06:57:18;;;;;;;6.47;3.90;;;;;;;6.35;100.00;96810.88;5035765;28;20069;-59
2021/03/25 06:59:47;;;;;;;7.22;4.40;;;;;;;6.22;100.00;96817.09;4999252;28;20130;-58
2021/03/25 07:02:19;;;;;;;5.50;4.32;;;;;;;7.06;100.00;96814.44;5037542;28;20077;-58
2021/03/25 07:04:49;;;;;;;4.57;3.90;;;;;;;6.84;100.00;96809.91;4995816;28;20077;-59
2021/03/25 07:07:20;;;;;;;11.27;4.10;;;;;;;7.09;100.00;96814.19;5030907;28;20068;-59
2021/03/25 07:09:49;;;;;;;5.85;4.20;;;;;;;7.63;100.00;96810.13;4992299;28;20115;-61
2021/03/25 07:12:20;;;;;;;6.82;3.75;;;;;;;7.83;100.00;96819.09;5038771;28;20084;-57
2021/03/25 07:14:50;;;;;;;5.90;4.15;;;;;;;7.58;100.00;96818.38;5023216;28;20073;-58
2021/03/25 07:17:27;;;;;;;5.68;4.10;;;;;;;7.74;100.00;96810.16;4998740;28;20512;-54
2021/03/25 07:19:55;;;;;;;5.13;4.05;;;;;;;7.69;100.00;96814.91;5029527;28;21330;-56
2021/03/25 07:22:25;;;;;;;3.65;3.17;;;;;;;7.87;100.00;96809.19;4991291;28;20524;-59
2021/03/25 07:25:17;;;;;;;6.17;3.90;;;;;;;8.32;95.91;96821.34;5039997;28;20075;-58
2021/03/25 07:27:44;;;;;;;4.85;3.88;;;;;;;8.45;100.00;96812.50;5005043;28;20072;-58
2021/03/25 07:30:45;;;;;;;7.28;3.72;;;;;;;8.74;96.53;96816.28;5032154;28;20626;-59
2021/03/25 07:33:15;;;;;;;6.35;3.88;;;;;;;8.55;96.33;96819.53;5041501;28;20061;-57
2021/03/25 07:35:46;;;;;;;6.05;3.70;;;;;;;8.88;94.63;96812.53;5021286;28;20085;-58
2021/03/25 07:38:23;;;;;;;5.15;3.80;;;;;;;9.11;92.01;96815.88;5025161;28;20076;-59
2021/03/25 07:41:11;;;;;;;5.28;3.60;;;;;;;9.37;92.09;96812.88;5027288;28;20075;-60
2021/03/25 07:43:53;;;;;;;5.57;4.20;;;;;;;9.15;95.35;96819.94;5026227;28;20479;-59
2021/03/25 07:46:24;;;;;;;5.90;3.65;;;;;;;9.35;92.20;96810.38;5009397;28;20106;-59
2021/03/25 07:49:08;;;;;;;6.85;3.65;;;;;;;9.52;86.94;96811.59;5023057;28;20076;-59
2021/03/25 07:51:50;;;;;;;4.95;3.55;;;;;;;9.82;84.86;96815.22;5003456;28;23544;-58
2021/03/25 07:54:27;;;;;;;9.00;5.82;;;;;;;9.92;82.87;96816.94;5029993;28;20068;-58
2021/03/25 07:57:03;;;;;;;32.40;14.95;;;;;;;10.18;81.57;96811.19;5000837;28;20092;-59
2021/03/25 07:59:37;;;;;;;84.13;33.97;;;;;;;10.50;79.32;96818.97;5040220;28;20488;-60
2021/03/25 08:02:29;;;;;;;78.97;34.97;;;;;;;10.97;75.65;96805.97;4997874;28;20096;-58
2021/03/25 08:05:13;;;;;;;19.50;10.13;;;;;;;11.37;69.75;96808.47;5021777;28;21537;-59
2021/03/25 08:07:41;;;;;;;25.02;10.23;;;;;;;12.07;66.10;96810.81;5004124;28;20064;-61
2021/03/25 08:10:22;;;;;;;8.88;4.45;;;;;;;11.05;72.11;96815.88;5016832;28;20076;-58
2021/03/25 08:13:16;;;;;;;7.78;4.90;;;;;;;10.90;70.61;96818.06;4991147;28;20088;-59
2021/03/25 08:15:46;;;;;;;7.35;4.15;;;;;;;11.44;69.02;96816.66;5034519;28;20081;-59
2021/03/25 08:18:44;;;;;;;13.02;4.45;;;;;;;10.95;64.42;96809.75;4994057;28;20044;-59
2021/03/25 08:21:19;;;;;;;10.93;4.80;;;;;;;11.00;62.11;96805.69;5035277;28;20069;-60
2021/03/25 08:24:07;;;;;;;8.70;4.85;;;;;;;11.08;62.37;96816.41;5000546;28;20088;-58
2021/03/25 08:26:42;;;;;;;12.23;4.70;;;;;;;11.22;62.54;96814.31;5029111;28;20084;-60
2021/03/25 08:29:16;;;;;;;11.35;5.10;;;;;;;11.77;61.96;96811.88;5003245;28;20080;-58
2021/03/25 08:31:55;;;;;;;8.93;4.85;;;;;;;11.89;59.50;96813.38;5022375;28;20073;-58
2021/03/25 08:34:42;;;;;;;8.38;4.88;;;;;;;11.80;60.66;96827.41;4998314;28;20070;-59
2021/03/25 08:37:26;;;;;;;12.38;4.28;;;;;;;11.54;63.28;96809.56;5030388;28;20072;-59
2021/03/25 08:39:58;;;;;;;13.52;5.25;;;;;;;11.49;58.48;96814.41;4993157;28;20177;-58
2021/03/25 08:42:29;;;;;;;9.20;4.80;;;;;;;11.40;62.53;96816.09;5040179;28;20064;-59
2021/03/25 08:45:13;;;;;;;13.40;5.75;;;;;;;11.97;56.92;96816.13;4991510;28;20714;-59
2021/03/25 08:47:46;;;;;;;8.13;4.45;;;;;;;11.90;59.84;96812.41;5029235;28;20760;-55
2021/03/25 08:50:44;;;;;;;13.75;5.80;;;;;;;12.07;64.20;96808.16;5009310;28;20076;-59
2021/03/25 08:53:27;;;;;;;11.25;6.00;;;;;;;11.74;57.94;96813.00;4975388;28;20476;-59
2021/03/25 08:55:56;;;;;;;13.07;6.50;;;;;;;12.02;56.25;96805.16;4995674;28;20327;-60
2021/03/25 08:58:29;;;;;;;11.48;6.75;;;;;;;12.38;56.14;96813.19;5031385;28;20134;-60
2021/03/25 09:01:04;;;;;;;15.93;6.85;;;;;;;12.50;60.04;96806.72;4990961;28;20075;-60
2021/03/25 09:03:35;;;;;;;9.65;6.20;;;;;;;12.71;57.12;96807.28;5029266;28;20072;-58
2021/03/25 09:06:06;;;;;;;12.20;6.18;;;;;;;12.43;59.26;96809.13;4975109;28;20763;-57
2021/03/25 09:08:37;;;;;;;11.95;6.43;;;;;;;12.99;70.31;96800.13;5030072;28;20078;-60
2021/03/25 09:11:07;;;;;;;13.35;6.78;;;;;;;12.92;61.44;96812.28;5002699;28;20455;-56
2021/03/25 09:13:38;;;;;;;14.07;7.97;;;;;;;13.02;58.44;96801.63;5031425;28;20125;-59
2021/03/25 09:16:14;;;;;;;13.95;6.80;;;;;;;12.87;63.99;96809.28;5001829;28;20065;-61
2021/03/25 09:18:44;;;;;;;14.48;8.00;;;;;;;13.19;56.78;96807.91;5020811;28;20473;-60
2021/03/25 09:21:17;;;;;;;10.98;6.90;;;;;;;13.12;57.35;96801.56;4997577;28;20064;-59
2021/03/25 09:24:02;;;;;;;12.93;7.07;;;;;;;13.22;54.63;96804.97;5022616;28;20081;-60
2021/03/25 09:26:56;;;;;;;15.70;7.30;;;;;;;13.41;57.50;96799.50;4991250;28;20531;-60
2021/03/25 09:29:33;;;;;;;11.23;6.57;;;;;;;13.39;59.34;96798.03;5035812;28;20467;-58
2021/03/25 09:32:34;;;;;;;12.98;7.75;;;;;;;13.33;52.71;96796.81;4992626;28;20566;-58
2021/03/25 09:35:03;;;;;;;;;;;;;;;13.81;62.04;96792.84;5029575;28;20467;-59
2021/03/25 09:37:33;;;;;;;11.75;7.18;;;;;;;13.67;53.42;96790.78;5012861;28;19963;-59
2021/03/25 09:40:11;;;;;;;12.00;7.68;;;;;;;13.89;54.18;96792.88;5029492;28;20141;-58
2021/03/25 09:42:39;;;;;;;11.15;6.82;;;;;;;13.82;56.75;96797.16;5010206;28;20061;-58
2021/03/25 09:45:30;;;;;;;13.43;7.95;;;;;;;13.93;51.04;96794.22;5023906;28;20066;-60
2021/03/25 09:48:22;;;;;;;13.50;7.72;;;;;;;14.34;55.57;96794.41;5022116;28;20500;-59
2021/03/25 09:51:05;;;;;;;16.02;8.07;;;;;;;14.34;48.19;96790.94;5041957;28;20065;-57
2021/03/25 09:53:45;;;;;;;15.20;7.70;;;;;;;14.73;51.12;96791.28;5025581;28;20085;-60
2021/03/25 09:56:30;;;;;;;12.50;7.75;;;;;;;14.53;49.21;96792.53;5027153;28;20081;-59
2021/03/25 09:58:58;;;;;;;17.02;9.18;;;;;;;14.08;54.95;96791.84;5030627;28;20424;-60
2021/03/25 10:01:44;;;;;;;13.27;8.27;;;;;;;14.55;51.54;96790.53;5015611;28;20080;-59
2021/03/25 10:04:32;;;;;;;14.38;8.55;;;;;;;14.62;53.11;96794.22;5043583;28;20460;-56
2021/03/25 10:07:20;;;;;;;13.32;8.20;;;;;;;14.86;51.85;96775.69;4999131;28;20131;-60
2021/03/25 10:09:58;;;;;;;15.07;8.93;;;;;;;14.63;52.69;96785.28;5023255;28;20072;-57
2021/03/25 10:12:53;;;;;;;15.75;9.40;;;;;;;14.81;46.88;96771.88;4992618;28;20092;-60
2021/03/25 10:15:45;;;;;;;15.30;9.10;;;;;;;15.35;45.54;96775.75;5024975;28;20061;-60
2021/03/25 10:18:56;;;;;;;12.38;8.20;;;;;;;14.56;51.38;96773.66;4992171;28;20079;-60
2021/03/25 10:21:42;;;;;;;;;;;;;;;14.87;51.56;96776.53;5042744;28;20079;-59
2021/03/25 10:24:18;;;;;;;14.15;8.93;;;;;;;15.05;46.62;96774.56;5007212;28;20398;-59
2021/03/25 10:26:46;;;;;;;16.60;9.25;;;;;;;15.08;46.22;96765.44;5033454;28;20081;-59
2021/03/25 10:29:17;;;;;;;17.42;9.70;;;;;;;15.23;52.43;96768.25;5009724;28;20484;-60
2021/03/25 10:31:46;;;;;;;;;;;;;;;15.18;48.96;96766.94;5026749;28;20065;-59
2021/03/25 10:34:21;;;;;;;14.30;9.20;;;;;;;14.95;51.93;96758.78;5002681;28;19979;-57
2021/03/25 10:36:56;;;;;;;18.50;9.00;;;;;;;15.09;47.62;96753.81;5029279;28;20071;-55
2021/03/25 10:39:29;;;;;;;13.55;9.07;;;;;;;15.62;53.67;96753.28;4999094;28;20065;-59
2021/03/25 10:41:57;;;;;;;14.80;9.25;;;;;;;15.85;49.41;96757.91;5031306;28;20076;-60
2021/03/25 10:44:27;;;;;;;15.32;9.45;;;;;;;15.76;48.50;96759.78;5001541;28;20081;-59
2021/03/25 10:46:55;;;;;;;;;;;;;;;15.75;47.02;96744.78;5040536;28;20570;-57
2021/03/25 10:49:26;;;;;;;13.93;8.55;;;;;;;15.63;44.58;96741.66;4994831;28;19949;-59
2021/03/25 10:51:54;;;;;;;16.23;9.43;;;;;;;15.93;50.14;96746.41;5032120;28;20081;-57
2021/03/25 10:54:29;;;;;;;15.55;9.00;;;;;;;15.38;44.19;96738.19;4999802;28;20072;-59
2021/03/25 10:57:14;;;;;;;15.23;9.70;;;;;;;15.61;42.77;96740.16;5016560;28;20077;-60
2021/03/25 10:59:50;;;;;;;14.82;8.73;;;;;;;15.26;44.14;96742.19;5000412;28;20098;-59
2021/03/25 11:02:25;;;;;;;16.67;9.98;;;;;;;15.90;41.46;96729.81;5022763;28;20089;-59
2021/03/25 11:05:09;;;;;;;17.08;9.77;;;;;;;16.03;41.81;96733.75;4990183;28;20066;-59
2021/03/25 11:07:43;;;;;;;15.07;9.10;;;;;;;16.08;45.28;96728.75;4921642;28;20050;-59
2021/03/25 11:10:20;;;;;;;15.82;9.45;;;;;;;16.62;40.61;96728.81;4991360;28;20183;-58
2021/03/25 11:12:55;;;;;;;17.42;10.20;;;;;;;16.05;40.17;96719.28;5040811;28;20060;-59
2021/03/25 11:15:30;;;;;;;14.32;9.45;;;;;;;15.91;41.08;96727.97;4993359;28;20074;-59
2021/03/25 11:17:59;;;;;;;15.45;9.60;;;;;;;16.29;41.50;96721.00;5023469;28;20072;-59
2021/03/25 11:20:28;;;;;;;17.60;10.30;;;;;;;16.18;41.66;96718.72;5000894;28;20080;-56
2021/03/25 11:22:57;;;;;;;16.63;9.63;;;;;;;16.35;43.59;96711.50;5030287;28;20483;-59
2021/03/25 11:25:28;;;;;;;17.88;10.60;;;;;;;16.13;42.03;96713.09;4999904;28;20069;-59
2021/03/25 11:28:03;;;;;;;16.60;10.43;;;;;;;16.22;40.53;96711.22;5020157;28;20073;-59
2021/03/25 11:30:35;;;;;;;17.25;9.40;;;;;;;16.70;41.60;96711.97;5001326;28;20073;-59
2021/03/25 11:33:38;;;;;;;16.17;9.80;;;;;;;16.54;42.41;96710.22;5030781;28;20087;-59
2021/03/25 11:36:07;;;;;;;14.52;9.70;;;;;;;16.21;39.47;96698.91;5002314;28;20072;-60
2021/03/25 11:38:37;;;;;;;12.90;8.13;;;;;;;16.18;41.88;96702.78;5030389;28;20089;-58
2021/03/25 11:41:07;;;;;;;14.93;8.80;;;;;;;16.45;39.29;96701.47;4997579;28;20077;-59
2021/03/25 11:43:53;;;;;;;15.27;8.05;;;;;;;16.75;39.21;96697.13;5036016;28;20163;-60
2021/03/25 11:46:27;;;;;;;15.07;9.50;;;;;;;16.74;38.28;96694.63;5003900;28;20041;-59
2021/03/25 11:49:10;;;;;;;12.20;6.70;;;;;;;16.87;42.12;96688.72;5021977;28;20068;-57
2021/03/25 11:51:40;;;;;;;11.30;5.55;;;;;;;16.90;39.00;96686.53;5006820;28;20524;-59
2021/03/25 11:54:26;;;;;;;13.05;7.72;;;;;;;16.57;40.57;96692.06;5020642;28;20066;-60
2021/03/25 11:56:56;;;;;;;15.60;8.57;;;;;;;16.52;40.56;96686.44;4987050;28;20065;-60
2021/03/25 11:59:29;;;;;;;9.90;5.50;;;;;;;16.92;40.72;96681.84;5033071;28;20081;-58
2021/03/25 12:02:28;;;;;;;12.10;6.97;;;;;;;16.83;40.82;96682.94;4996515;28;21553;-60
2021/03/25 12:04:56;;;;;;;14.07;7.55;;;;;;;17.22;42.48;96685.44;5013849;28;20073;-60